Estación Meteorológica Peña el Pijo (Robertgarden) [ 06/25/18 14:04:42 CEST ]

Fecha Hora Presion(HPa) Temp (°C) Humedad % Rocio (°C) Viento ( m/s) Direccion Lluvia 1Hora(mm) Lluvia 24H(mm) LLuvia Total(mm)
2018-Jun-06 01:01:27 1005.500 12.3 63 5.4         261.59
2018-Jun-06 02:01:46 1005.300 12.1 64 5.5         261.59
2018-Jun-06 03:01:39 1004.600 11.8 65 5.4         261.59
2018-Jun-06 04:03:14 1004.500 11.5 66 5.3         261.59
2018-Jun-06 05:01:51 1004.400 11.1 68 5.4         261.59
2018-Jun-06 06:01:35 1004.500 10.6 70 5.4         261.59
2018-Jun-06 07:01:38 1004.800 10.7 72 5.9         261.59
2018-Jun-06 08:01:46 1004.900 11.1 73 6.5         261.59
2018-Jun-06 09:01:34 1005.200 12.3 71 7.2         261.59
2018-Jun-06 10:01:44 1005.100 13.2 70 7.9         261.59
2018-Jun-06 11:01:46 1005.000 15.5 59 7.5 2.9 NNW     261.59
2018-Jun-06 12:01:36 1005.400 17.9 53 8.1         261.59
2018-Jun-06 13:01:39 1005.500 17.6 51 7.3         261.59
2018-Jun-06 14:01:58 1005.000 18.0 49 7.1         261.59
2018-Jun-06 15:01:32 1005.300 16.7 50 6.2 2.0 WNW     261.59
2018-Jun-06 16:01:51 1006.200 12.4 67 6.4         261.59
2018-Jun-06 17:01:46 1006.700 10.9 75 6.6     2.07 2.07 263.66
2018-Jun-06 18:01:57 1006.900 10.8 79 7.3     2.07 4.14 265.73
2018-Jun-06 19:01:56 1006.300 11.0 79 7.5     0.51 4.66 266.25
2018-Jun-06 20:02:10 1006.700 11.1 78 7.4       4.66 266.25
2018-Jun-06 21:01:58 1007.200 10.6 79 7.1       4.66 266.25
2018-Jun-06 22:01:51 1007.700 9.3 80 6.0       4.66 266.25
2018-Jun-06 23:01:49 1008.800 8.7 82 5.8       4.66 266.25

Temperatura Máxima:18°    Temperatura Mínima:
Presión Máxima:1008.800 Hpa    Presión Mínima:1004.400 Hpa


Volver